sensor_id;sensor_type;location;lat;lon;timestamp;P1;durP1;ratioP1;P2;durP2;ratioP2
46931;SDS011;32670;51.464;11.964;2023-02-28T00:00:38;5.57;;;4.90;;
46931;SDS011;32670;51.464;11.964;2023-02-28T00:03:04;5.37;;;4.87;;
46931;SDS011;32670;51.464;11.964;2023-02-28T00:05:30;7.10;;;5.13;;
46931;SDS011;32670;51.464;11.964;2023-02-28T00:07:55;5.47;;;4.97;;
46931;SDS011;32670;51.464;11.964;2023-02-28T00:10:24;5.30;;;4.80;;
46931;SDS011;32670;51.464;11.964;2023-02-28T00:12:52;5.73;;;5.00;;
46931;SDS011;32670;51.464;11.964;2023-02-28T00:15:21;6.70;;;5.30;;
46931;SDS011;32670;51.464;11.964;2023-02-28T00:17:48;6.53;;;5.27;;
46931;SDS011;32670;51.464;11.964;2023-02-28T00:20:13;5.90;;;5.30;;
46931;SDS011;32670;51.464;11.964;2023-02-28T00:22:40;6.40;;;5.53;;
46931;SDS011;32670;51.464;11.964;2023-02-28T00:25:08;5.17;;;4.67;;
46931;SDS011;32670;51.464;11.964;2023-02-28T00:27:35;6.27;;;5.03;;
46931;SDS011;32670;51.464;11.964;2023-02-28T00:30:01;5.30;;;4.80;;
46931;SDS011;32670;51.464;11.964;2023-02-28T00:32:28;5.83;;;5.33;;
46931;SDS011;32670;51.464;11.964;2023-02-28T00:34:53;5.30;;;4.80;;
46931;SDS011;32670;51.464;11.964;2023-02-28T00:37:19;6.47;;;4.87;;
46931;SDS011;32670;51.464;11.964;2023-02-28T00:39:44;5.50;;;4.67;;
46931;SDS011;32670;51.464;11.964;2023-02-28T00:42:10;5.70;;;5.20;;
46931;SDS011;32670;51.464;11.964;2023-02-28T00:44:35;5.57;;;4.97;;
46931;SDS011;32670;51.464;11.964;2023-02-28T00:47:00;6.00;;;4.77;;
46931;SDS011;32670;51.464;11.964;2023-02-28T00:49:26;5.73;;;4.87;;
46931;SDS011;32670;51.464;11.964;2023-02-28T00:51:52;4.83;;;4.40;;
46931;SDS011;32670;51.464;11.964;2023-02-28T00:54:19;5.67;;;4.80;;
46931;SDS011;32670;51.464;11.964;2023-02-28T00:56:45;5.20;;;4.70;;
46931;SDS011;32670;51.464;11.964;2023-02-28T00:59:14;5.53;;;4.60;;
46931;SDS011;32670;51.464;11.964;2023-02-28T01:01:41;5.30;;;4.80;;
46931;SDS011;32670;51.464;11.964;2023-02-28T01:04:07;7.33;;;4.83;;
46931;SDS011;32670;51.464;11.964;2023-02-28T01:06:33;5.77;;;5.00;;
46931;SDS011;32670;51.464;11.964;2023-02-28T01:08:59;4.77;;;4.27;;
46931;SDS011;32670;51.464;11.964;2023-02-28T01:11:24;6.50;;;5.10;;
46931;SDS011;32670;51.464;11.964;2023-02-28T01:13:50;5.17;;;4.67;;
46931;SDS011;32670;51.464;11.964;2023-02-28T01:16:16;5.03;;;4.53;;
46931;SDS011;32670;51.464;11.964;2023-02-28T01:18:41;4.57;;;4.17;;
46931;SDS011;32670;51.464;11.964;2023-02-28T01:21:11;4.63;;;4.23;;
46931;SDS011;32670;51.464;11.964;2023-02-28T01:23:39;5.10;;;4.60;;
46931;SDS011;32670;51.464;11.964;2023-02-28T01:26:06;6.80;;;5.77;;
46931;SDS011;32670;51.464;11.964;2023-02-28T01:28:33;6.97;;;4.93;;
46931;SDS011;32670;51.464;11.964;2023-02-28T01:30:58;7.73;;;4.90;;
46931;SDS011;32670;51.464;11.964;2023-02-28T01:33:24;5.20;;;4.70;;
46931;SDS011;32670;51.464;11.964;2023-02-28T01:35:56;7.40;;;4.80;;
46931;SDS011;32670;51.464;11.964;2023-02-28T01:38:23;7.33;;;4.60;;
46931;SDS011;32670;51.464;11.964;2023-02-28T01:40:49;10.70;;;4.87;;
46931;SDS011;32670;51.464;11.964;2023-02-28T01:43:25;8.90;;;4.90;;
46931;SDS011;32670;51.464;11.964;2023-02-28T01:45:53;5.87;;;4.67;;
46931;SDS011;32670;51.464;11.964;2023-02-28T01:48:21;4.90;;;4.50;;
46931;SDS011;32670;51.464;11.964;2023-02-28T01:50:51;5.97;;;5.07;;
46931;SDS011;32670;51.464;11.964;2023-02-28T01:53:18;4.93;;;4.53;;
46931;SDS011;32670;51.464;11.964;2023-02-28T01:55:49;5.80;;;4.73;;
46931;SDS011;32670;51.464;11.964;2023-02-28T01:58:17;5.20;;;4.80;;
46931;SDS011;32670;51.464;11.964;2023-02-28T02:00:43;5.20;;;4.70;;
46931;SDS011;32670;51.464;11.964;2023-02-28T02:03:09;7.27;;;4.73;;
46931;SDS011;32670;51.464;11.964;2023-02-28T02:05:38;5.50;;;5.00;;
46931;SDS011;32670;51.464;11.964;2023-02-28T02:08:05;6.30;;;4.87;;
46931;SDS011;32670;51.464;11.964;2023-02-28T02:10:41;7.47;;;4.80;;
46931;SDS011;32670;51.464;11.964;2023-02-28T02:13:27;7.17;;;4.80;;
46931;SDS011;32670;51.464;11.964;2023-02-28T02:19:26;6.47;;;4.40;;
46931;SDS011;32670;51.464;11.964;2023-02-28T02:25:19;9.37;;;5.23;;
46931;SDS011;32670;51.464;11.964;2023-02-28T02:27:58;9.57;;;5.53;;
46931;SDS011;32670;51.464;11.964;2023-02-28T02:30:43;5.83;;;5.07;;
46931;SDS011;32670;51.464;11.964;2023-02-28T02:33:45;8.53;;;5.10;;
46931;SDS011;32670;51.464;11.964;2023-02-28T02:36:43;6.33;;;5.47;;
46931;SDS011;32670;51.464;11.964;2023-02-28T02:42:01;6.10;;;4.73;;
46931;SDS011;32670;51.464;11.964;2023-02-28T02:44:48;6.40;;;5.00;;
46931;SDS011;32670;51.464;11.964;2023-02-28T02:47:21;6.43;;;5.00;;
46931;SDS011;32670;51.464;11.964;2023-02-28T02:49:51;5.27;;;4.83;;
46931;SDS011;32670;51.464;11.964;2023-02-28T02:52:22;5.43;;;4.77;;
46931;SDS011;32670;51.464;11.964;2023-02-28T02:54:54;6.53;;;4.77;;
46931;SDS011;32670;51.464;11.964;2023-02-28T02:57:23;6.27;;;5.30;;
46931;SDS011;32670;51.464;11.964;2023-02-28T02:59:54;5.17;;;4.67;;
46931;SDS011;32670;51.464;11.964;2023-02-28T03:02:21;7.30;;;5.00;;
46931;SDS011;32670;51.464;11.964;2023-02-28T03:04:51;6.13;;;4.90;;
46931;SDS011;32670;51.464;11.964;2023-02-28T03:07:25;5.43;;;4.33;;
46931;SDS011;32670;51.464;11.964;2023-02-28T03:09:51;6.67;;;4.53;;
46931;SDS011;32670;51.464;11.964;2023-02-28T03:12:18;7.47;;;5.00;;
46931;SDS011;32670;51.464;11.964;2023-02-28T03:17:40;5.10;;;4.60;;
46931;SDS011;32670;51.464;11.964;2023-02-28T03:23:04;8.37;;;5.37;;
46931;SDS011;32670;51.464;11.964;2023-02-28T03:25:42;5.20;;;4.70;;
46931;SDS011;32670;51.464;11.964;2023-02-28T03:28:27;6.30;;;4.90;;
46931;SDS011;32670;51.464;11.964;2023-02-28T03:31:07;6.87;;;4.07;;
46931;SDS011;32670;51.464;11.964;2023-02-28T03:33:47;6.03;;;4.80;;
46931;SDS011;32670;51.464;11.964;2023-02-28T03:36:20;4.17;;;3.87;;
46931;SDS011;32670;51.464;11.964;2023-02-28T03:39:03;5.77;;;4.50;;
46931;SDS011;32670;51.464;11.964;2023-02-28T03:41:38;5.07;;;4.30;;
46931;SDS011;32670;51.464;11.964;2023-02-28T03:44:13;5.27;;;4.77;;
46931;SDS011;32670;51.464;11.964;2023-02-28T03:47:00;8.53;;;4.43;;
46931;SDS011;32670;51.464;11.964;2023-02-28T03:49:32;5.10;;;4.60;;
46931;SDS011;32670;51.464;11.964;2023-02-28T03:52:05;5.87;;;4.30;;
46931;SDS011;32670;51.464;11.964;2023-02-28T03:54:35;5.27;;;4.30;;
46931;SDS011;32670;51.464;11.964;2023-02-28T03:59:59;4.93;;;4.53;;
46931;SDS011;32670;51.464;11.964;2023-02-28T04:02:38;6.37;;;4.20;;
46931;SDS011;32670;51.464;11.964;2023-02-28T04:05:04;4.93;;;4.53;;
46931;SDS011;32670;51.464;11.964;2023-02-28T04:07:31;4.80;;;4.30;;
46931;SDS011;32670;51.464;11.964;2023-02-28T04:09:57;4.87;;;4.47;;
46931;SDS011;32670;51.464;11.964;2023-02-28T04:12:23;4.50;;;4.10;;
46931;SDS011;32670;51.464;11.964;2023-02-28T04:14:49;4.50;;;4.10;;
46931;SDS011;32670;51.464;11.964;2023-02-28T04:17:15;7.83;;;3.97;;
46931;SDS011;32670;51.464;11.964;2023-02-28T04:19:40;4.67;;;4.27;;
46931;SDS011;32670;51.464;11.964;2023-02-28T04:22:07;5.03;;;4.50;;
46931;SDS011;32670;51.464;11.964;2023-02-28T04:24:34;4.57;;;3.73;;
46931;SDS011;32670;51.464;11.964;2023-02-28T04:27:00;4.43;;;4.03;;
46931;SDS011;32670;51.464;11.964;2023-02-28T04:29:27;4.63;;;4.20;;
46931;SDS011;32670;51.464;11.964;2023-02-28T04:31:54;4.33;;;4.00;;
46931;SDS011;32670;51.464;11.964;2023-02-28T04:34:23;4.47;;;4.00;;
46931;SDS011;32670;51.464;11.964;2023-02-28T04:36:49;4.13;;;3.73;;
46931;SDS011;32670;51.464;11.964;2023-02-28T04:39:16;4.10;;;3.80;;
46931;SDS011;32670;51.464;11.964;2023-02-28T04:41:43;4.73;;;3.77;;
46931;SDS011;32670;51.464;11.964;2023-02-28T04:44:09;4.97;;;3.70;;
46931;SDS011;32670;51.464;11.964;2023-02-28T04:46:35;5.07;;;3.87;;
46931;SDS011;32670;51.464;11.964;2023-02-28T04:49:00;4.23;;;3.87;;
46931;SDS011;32670;51.464;11.964;2023-02-28T04:51:26;5.00;;;3.93;;
46931;SDS011;32670;51.464;11.964;2023-02-28T04:53:54;4.33;;;3.93;;
46931;SDS011;32670;51.464;11.964;2023-02-28T04:56:19;5.60;;;3.93;;
46931;SDS011;32670;51.464;11.964;2023-02-28T04:58:45;4.77;;;3.80;;
46931;SDS011;32670;51.464;11.964;2023-02-28T05:01:24;4.20;;;3.80;;
46931;SDS011;32670;51.464;11.964;2023-02-28T05:03:58;3.90;;;3.60;;
46931;SDS011;32670;51.464;11.964;2023-02-28T05:06:25;4.60;;;4.20;;
46931;SDS011;32670;51.464;11.964;2023-02-28T05:08:52;4.10;;;3.80;;
46931;SDS011;32670;51.464;11.964;2023-02-28T05:11:20;4.77;;;3.77;;
46931;SDS011;32670;51.464;11.964;2023-02-28T05:13:48;3.97;;;3.57;;
46931;SDS011;32670;51.464;11.964;2023-02-28T05:16:14;4.60;;;3.77;;
46931;SDS011;32670;51.464;11.964;2023-02-28T05:18:40;4.00;;;3.70;;
46931;SDS011;32670;51.464;11.964;2023-02-28T05:21:06;4.37;;;3.87;;
46931;SDS011;32670;51.464;11.964;2023-02-28T05:23:49;4.67;;;3.97;;
46931;SDS011;32670;51.464;11.964;2023-02-28T05:26:14;6.00;;;4.07;;
46931;SDS011;32670;51.464;11.964;2023-02-28T05:28:40;4.77;;;3.67;;
46931;SDS011;32670;51.464;11.964;2023-02-28T05:31:05;4.23;;;3.67;;
46931;SDS011;32670;51.464;11.964;2023-02-28T05:33:31;3.70;;;3.40;;
46931;SDS011;32670;51.464;11.964;2023-02-28T05:35:56;5.60;;;3.87;;
46931;SDS011;32670;51.464;11.964;2023-02-28T05:38:21;3.80;;;3.50;;
46931;SDS011;32670;51.464;11.964;2023-02-28T05:40:47;4.00;;;3.50;;
46931;SDS011;32670;51.464;11.964;2023-02-28T05:43:12;4.63;;;3.53;;
46931;SDS011;32670;51.464;11.964;2023-02-28T05:45:38;4.80;;;4.10;;
46931;SDS011;32670;51.464;11.964;2023-02-28T05:48:03;4.47;;;4.07;;
46931;SDS011;32670;51.464;11.964;2023-02-28T05:50:29;7.17;;;4.00;;
46931;SDS011;32670;51.464;11.964;2023-02-28T05:52:55;4.03;;;3.63;;
46931;SDS011;32670;51.464;11.964;2023-02-28T05:55:20;5.03;;;3.80;;
46931;SDS011;32670;51.464;11.964;2023-02-28T05:57:45;9.57;;;4.00;;
46931;SDS011;32670;51.464;11.964;2023-02-28T06:00:11;3.90;;;3.60;;
46931;SDS011;32670;51.464;11.964;2023-02-28T06:02:39;7.53;;;3.70;;
46931;SDS011;32670;51.464;11.964;2023-02-28T06:05:05;3.97;;;3.67;;
46931;SDS011;32670;51.464;11.964;2023-02-28T06:07:37;3.90;;;3.50;;
46931;SDS011;32670;51.464;11.964;2023-02-28T06:10:03;5.83;;;3.70;;
46931;SDS011;32670;51.464;11.964;2023-02-28T06:12:29;6.03;;;4.00;;
46931;SDS011;32670;51.464;11.964;2023-02-28T06:14:54;4.67;;;3.80;;
46931;SDS011;32670;51.464;11.964;2023-02-28T06:17:20;4.70;;;3.70;;
46931;SDS011;32670;51.464;11.964;2023-02-28T06:19:45;4.20;;;3.80;;
46931;SDS011;32670;51.464;11.964;2023-02-28T06:22:12;4.10;;;3.70;;
46931;SDS011;32670;51.464;11.964;2023-02-28T06:24:38;5.23;;;4.03;;
46931;SDS011;32670;51.464;11.964;2023-02-28T06:27:03;6.83;;;4.10;;
46931;SDS011;32670;51.464;11.964;2023-02-28T06:29:30;7.20;;;4.27;;
46931;SDS011;32670;51.464;11.964;2023-02-28T06:31:56;6.20;;;3.40;;
46931;SDS011;32670;51.464;11.964;2023-02-28T06:34:22;3.13;;;2.90;;
46931;SDS011;32670;51.464;11.964;2023-02-28T06:36:49;3.07;;;2.83;;
46931;SDS011;32670;51.464;11.964;2023-02-28T06:39:15;4.40;;;3.20;;
46931;SDS011;32670;51.464;11.964;2023-02-28T06:41:41;4.37;;;3.20;;
46931;SDS011;32670;51.464;11.964;2023-02-28T06:44:11;5.80;;;3.20;;
46931;SDS011;32670;51.464;11.964;2023-02-28T06:46:41;6.87;;;3.27;;
46931;SDS011;32670;51.464;11.964;2023-02-28T06:49:08;5.13;;;3.20;;
46931;SDS011;32670;51.464;11.964;2023-02-28T06:51:34;4.57;;;3.17;;
46931;SDS011;32670;51.464;11.964;2023-02-28T06:54:01;3.67;;;3.20;;
46931;SDS011;32670;51.464;11.964;2023-02-28T06:56:26;6.63;;;3.13;;
46931;SDS011;32670;51.464;11.964;2023-02-28T06:58:52;3.63;;;3.10;;
46931;SDS011;32670;51.464;11.964;2023-02-28T07:01:21;5.73;;;3.40;;
46931;SDS011;32670;51.464;11.964;2023-02-28T07:03:48;4.13;;;3.17;;
46931;SDS011;32670;51.464;11.964;2023-02-28T07:06:17;4.20;;;3.03;;
46931;SDS011;32670;51.464;11.964;2023-02-28T07:08:43;3.47;;;2.97;;
46931;SDS011;32670;51.464;11.964;2023-02-28T07:11:08;3.50;;;3.20;;
46931;SDS011;32670;51.464;11.964;2023-02-28T07:13:34;4.00;;;3.60;;
46931;SDS011;32670;51.464;11.964;2023-02-28T07:16:01;3.93;;;3.20;;
46931;SDS011;32670;51.464;11.964;2023-02-28T07:18:28;4.27;;;3.30;;
46931;SDS011;32670;51.464;11.964;2023-02-28T07:20:54;3.40;;;3.10;;
46931;SDS011;32670;51.464;11.964;2023-02-28T07:23:20;4.20;;;3.40;;
46931;SDS011;32670;51.464;11.964;2023-02-28T07:25:46;5.10;;;3.50;;
46931;SDS011;32670;51.464;11.964;2023-02-28T07:28:12;5.67;;;3.40;;
46931;SDS011;32670;51.464;11.964;2023-02-28T07:30:38;3.93;;;3.43;;
46931;SDS011;32670;51.464;11.964;2023-02-28T07:33:04;5.30;;;3.13;;
46931;SDS011;32670;51.464;11.964;2023-02-28T07:35:30;9.57;;;3.30;;
46931;SDS011;32670;51.464;11.964;2023-02-28T07:37:59;9.53;;;3.60;;
46931;SDS011;32670;51.464;11.964;2023-02-28T07:40:25;7.97;;;3.40;;
46931;SDS011;32670;51.464;11.964;2023-02-28T07:42:51;4.97;;;2.80;;
46931;SDS011;32670;51.464;11.964;2023-02-28T07:45:16;6.27;;;2.90;;
46931;SDS011;32670;51.464;11.964;2023-02-28T07:47:43;7.30;;;2.87;;
46931;SDS011;32670;51.464;11.964;2023-02-28T07:50:10;7.33;;;2.63;;
46931;SDS011;32670;51.464;11.964;2023-02-28T07:52:38;5.13;;;2.50;;
46931;SDS011;32670;51.464;11.964;2023-02-28T07:55:05;5.93;;;2.50;;
46931;SDS011;32670;51.464;11.964;2023-02-28T07:57:31;8.20;;;2.80;;
46931;SDS011;32670;51.464;11.964;2023-02-28T07:59:57;11.60;;;2.73;;
46931;SDS011;32670;51.464;11.964;2023-02-28T08:02:22;3.27;;;2.40;;
46931;SDS011;32670;51.464;11.964;2023-02-28T08:04:48;6.37;;;2.50;;
46931;SDS011;32670;51.464;11.964;2023-02-28T08:07:14;3.47;;;2.20;;
46931;SDS011;32670;51.464;11.964;2023-02-28T08:09:40;3.37;;;2.40;;
46931;SDS011;32670;51.464;11.964;2023-02-28T08:12:06;2.70;;;2.43;;
46931;SDS011;32670;51.464;11.964;2023-02-28T08:14:33;4.10;;;2.30;;
46931;SDS011;32670;51.464;11.964;2023-02-28T08:16:59;3.53;;;2.20;;
46931;SDS011;32670;51.464;11.964;2023-02-28T08:19:25;3.53;;;2.00;;
46931;SDS011;32670;51.464;11.964;2023-02-28T08:21:50;3.00;;;2.30;;
46931;SDS011;32670;51.464;11.964;2023-02-28T08:24:16;3.53;;;2.17;;
46931;SDS011;32670;51.464;11.964;2023-02-28T08:26:41;2.60;;;2.27;;
46931;SDS011;32670;51.464;11.964;2023-02-28T08:29:06;3.93;;;2.27;;
46931;SDS011;32670;51.464;11.964;2023-02-28T08:31:32;4.23;;;2.33;;
46931;SDS011;32670;51.464;11.964;2023-02-28T08:33:57;2.80;;;2.40;;
46931;SDS011;32670;51.464;11.964;2023-02-28T08:36:24;2.80;;;2.10;;
46931;SDS011;32670;51.464;11.964;2023-02-28T08:38:50;2.33;;;1.97;;
46931;SDS011;32670;51.464;11.964;2023-02-28T08:41:16;3.47;;;2.50;;
46931;SDS011;32670;51.464;11.964;2023-02-28T08:43:44;3.47;;;2.30;;
46931;SDS011;32670;51.464;11.964;2023-02-28T08:46:11;2.37;;;2.17;;
46931;SDS011;32670;51.464;11.964;2023-02-28T08:48:38;4.43;;;2.50;;
46931;SDS011;32670;51.464;11.964;2023-02-28T08:51:08;9.53;;;3.93;;
46931;SDS011;32670;51.464;11.964;2023-02-28T08:53:36;15.67;;;7.63;;
46931;SDS011;32670;51.464;11.964;2023-02-28T08:56:03;10.40;;;4.93;;
46931;SDS011;32670;51.464;11.964;2023-02-28T08:58:39;10.27;;;4.90;;
46931;SDS011;32670;51.464;11.964;2023-02-28T09:01:09;10.00;;;4.60;;
46931;SDS011;32670;51.464;11.964;2023-02-28T09:03:37;10.90;;;4.47;;
46931;SDS011;32670;51.464;11.964;2023-02-28T09:06:03;8.67;;;5.03;;
46931;SDS011;32670;51.464;11.964;2023-02-28T09:08:30;10.27;;;4.90;;
46931;SDS011;32670;51.464;11.964;2023-02-28T09:10:56;14.73;;;7.17;;
46931;SDS011;32670;51.464;11.964;2023-02-28T09:13:22;16.47;;;6.03;;
46931;SDS011;32670;51.464;11.964;2023-02-28T09:15:49;12.03;;;5.47;;
46931;SDS011;32670;51.464;11.964;2023-02-28T09:18:14;12.00;;;5.67;;
46931;SDS011;32670;51.464;11.964;2023-02-28T09:20:41;11.30;;;5.53;;
46931;SDS011;32670;51.464;11.964;2023-02-28T09:23:07;10.50;;;5.47;;
46931;SDS011;32670;51.464;11.964;2023-02-28T09:25:33;11.27;;;6.03;;
46931;SDS011;32670;51.464;11.964;2023-02-28T09:27:59;11.27;;;5.73;;
46931;SDS011;32670;51.464;11.964;2023-02-28T09:30:25;12.40;;;5.83;;
46931;SDS011;32670;51.464;11.964;2023-02-28T09:32:50;11.67;;;6.03;;
46931;SDS011;32670;51.464;11.964;2023-02-28T09:35:19;10.70;;;5.20;;
46931;SDS011;32670;51.464;11.964;2023-02-28T09:37:47;11.20;;;5.50;;
46931;SDS011;32670;51.464;11.964;2023-02-28T09:40:13;11.17;;;5.27;;
46931;SDS011;32670;51.464;11.964;2023-02-28T09:42:42;10.60;;;5.83;;
46931;SDS011;32670;51.464;11.964;2023-02-28T09:45:14;9.43;;;5.33;;
46931;SDS011;32670;51.464;11.964;2023-02-28T09:47:50;10.33;;;5.50;;
46931;SDS011;32670;51.464;11.964;2023-02-28T09:52:50;10.17;;;5.30;;
46931;SDS011;32670;51.464;11.964;2023-02-28T09:55:27;13.30;;;5.53;;
46931;SDS011;32670;51.464;11.964;2023-02-28T09:57:54;9.17;;;4.80;;
46931;SDS011;32670;51.464;11.964;2023-02-28T10:00:26;12.70;;;5.77;;
46931;SDS011;32670;51.464;11.964;2023-02-28T10:03:04;6.97;;;5.03;;
46931;SDS011;32670;51.464;11.964;2023-02-28T10:05:49;10.73;;;5.37;;
46931;SDS011;32670;51.464;11.964;2023-02-28T10:08:38;8.80;;;5.17;;
46931;SDS011;32670;51.464;11.964;2023-02-28T10:11:11;8.57;;;5.10;;
46931;SDS011;32670;51.464;11.964;2023-02-28T10:13:52;8.83;;;4.67;;
46931;SDS011;32670;51.464;11.964;2023-02-28T10:19:14;7.87;;;4.80;;
46931;SDS011;32670;51.464;11.964;2023-02-28T10:22:03;8.40;;;4.77;;
46931;SDS011;32670;51.464;11.964;2023-02-28T10:24:39;8.23;;;4.90;;
46931;SDS011;32670;51.464;11.964;2023-02-28T10:27:13;9.80;;;5.30;;
46931;SDS011;32670;51.464;11.964;2023-02-28T10:29:45;9.17;;;4.70;;
46931;SDS011;32670;51.464;11.964;2023-02-28T10:32:23;9.07;;;5.27;;
46931;SDS011;32670;51.464;11.964;2023-02-28T10:35:01;8.20;;;4.83;;
46931;SDS011;32670;51.464;11.964;2023-02-28T10:37:32;8.97;;;5.20;;
46931;SDS011;32670;51.464;11.964;2023-02-28T10:40:03;7.00;;;4.50;;
46931;SDS011;32670;51.464;11.964;2023-02-28T10:43:05;6.73;;;4.63;;
46931;SDS011;32670;51.464;11.964;2023-02-28T10:45:37;8.03;;;4.87;;
46931;SDS011;32670;51.464;11.964;2023-02-28T10:48:04;7.37;;;4.73;;
46931;SDS011;32670;51.464;11.964;2023-02-28T10:50:42;10.40;;;5.30;;
46931;SDS011;32670;51.464;11.964;2023-02-28T10:58:56;10.10;;;5.73;;
46931;SDS011;32670;51.464;11.964;2023-02-28T11:01:42;8.53;;;5.90;;
46931;SDS011;32670;51.464;11.964;2023-02-28T11:04:23;8.37;;;5.50;;
46931;SDS011;32670;51.464;11.964;2023-02-28T11:07:16;9.40;;;5.77;;
46931;SDS011;32670;51.464;11.964;2023-02-28T11:09:48;8.73;;;5.20;;
46931;SDS011;32670;51.464;11.964;2023-02-28T11:12:23;8.37;;;4.97;;
46931;SDS011;32670;51.464;11.964;2023-02-28T11:14:54;8.17;;;5.03;;
46931;SDS011;32670;51.464;11.964;2023-02-28T11:17:24;8.50;;;5.23;;
46931;SDS011;32670;51.464;11.964;2023-02-28T11:19:53;8.40;;;4.80;;
46931;SDS011;32670;51.464;11.964;2023-02-28T11:22:31;8.10;;;4.93;;
46931;SDS011;32670;51.464;11.964;2023-02-28T11:25:06;10.57;;;5.43;;
46931;SDS011;32670;51.464;11.964;2023-02-28T11:27:48;9.80;;;5.03;;
46931;SDS011;32670;51.464;11.964;2023-02-28T11:30:36;6.27;;;4.77;;
46931;SDS011;32670;51.464;11.964;2023-02-28T11:33:21;7.27;;;4.70;;
46931;SDS011;32670;51.464;11.964;2023-02-28T11:36:02;8.67;;;4.87;;
46931;SDS011;32670;51.464;11.964;2023-02-28T11:38:34;5.00;;;4.50;;
46931;SDS011;32670;51.464;11.964;2023-02-28T11:44:00;6.37;;;4.67;;
46931;SDS011;32670;51.464;11.964;2023-02-28T11:46:44;7.20;;;5.27;;
46931;SDS011;32670;51.464;11.964;2023-02-28T11:49:20;7.20;;;5.10;;
46931;SDS011;32670;51.464;11.964;2023-02-28T11:51:58;6.40;;;4.20;;
46931;SDS011;32670;51.464;11.964;2023-02-28T11:57:56;7.73;;;4.83;;
46931;SDS011;32670;51.464;11.964;2023-02-28T12:02:54;5.73;;;4.60;;
46931;SDS011;32670;51.464;11.964;2023-02-28T12:08:07;5.83;;;4.60;;
46931;SDS011;32670;51.464;11.964;2023-02-28T12:11:13;6.50;;;4.50;;
46931;SDS011;32670;51.464;11.964;2023-02-28T12:20:09;6.27;;;4.57;;
46931;SDS011;32670;51.464;11.964;2023-02-28T12:22:43;7.03;;;4.23;;
46931;SDS011;32670;51.464;11.964;2023-02-28T12:28:10;6.13;;;4.40;;
46931;SDS011;32670;51.464;11.964;2023-02-28T12:30:39;7.23;;;4.50;;
46931;SDS011;32670;51.464;11.964;2023-02-28T12:33:14;6.20;;;4.70;;
46931;SDS011;32670;51.464;11.964;2023-02-28T12:35:48;7.13;;;4.67;;
46931;SDS011;32670;51.464;11.964;2023-02-28T12:38:29;5.87;;;4.10;;
46931;SDS011;32670;51.464;11.964;2023-02-28T12:41:04;7.73;;;4.50;;
46931;SDS011;32670;51.464;11.964;2023-02-28T12:43:40;6.33;;;4.30;;
46931;SDS011;32670;51.464;11.964;2023-02-28T12:46:12;7.73;;;4.83;;
46931;SDS011;32670;51.464;11.964;2023-02-28T12:48:46;6.53;;;4.33;;
46931;SDS011;32670;51.464;11.964;2023-02-28T12:51:15;5.33;;;4.20;;
46931;SDS011;32670;51.464;11.964;2023-02-28T12:53:47;7.63;;;4.50;;
46931;SDS011;32670;51.464;11.964;2023-02-28T12:59:07;8.60;;;7.70;;
46931;SDS011;32670;51.464;11.964;2023-02-28T13:02:21;7.77;;;6.90;;
46931;SDS011;32670;51.464;11.964;2023-02-28T13:05:15;7.40;;;6.40;;
46931;SDS011;32670;51.464;11.964;2023-02-28T13:08:24;10.80;;;6.93;;
46931;SDS011;32670;51.464;11.964;2023-02-28T13:11:02;9.70;;;6.10;;
46931;SDS011;32670;51.464;11.964;2023-02-28T13:13:28;8.37;;;6.13;;
46931;SDS011;32670;51.464;11.964;2023-02-28T13:15:59;7.87;;;6.27;;
46931;SDS011;32670;51.464;11.964;2023-02-28T13:18:39;7.53;;;5.93;;
46931;SDS011;32670;51.464;11.964;2023-02-28T13:21:27;7.73;;;6.07;;
46931;SDS011;32670;51.464;11.964;2023-02-28T13:29:03;5.83;;;5.23;;
46931;SDS011;32670;51.464;11.964;2023-02-28T13:31:33;7.47;;;5.43;;
46931;SDS011;32670;51.464;11.964;2023-02-28T13:34:30;6.43;;;5.73;;
46931;SDS011;32670;51.464;11.964;2023-02-28T13:47:36;7.83;;;5.53;;
46931;SDS011;32670;51.464;11.964;2023-02-28T13:50:37;6.40;;;5.00;;
46931;SDS011;32670;51.464;11.964;2023-02-28T13:55:34;7.33;;;5.63;;
46931;SDS011;32670;51.464;11.964;2023-02-28T13:58:31;6.43;;;5.40;;
46931;SDS011;32670;51.464;11.964;2023-02-28T14:01:17;6.27;;;5.03;;
46931;SDS011;32670;51.464;11.964;2023-02-28T14:04:09;7.63;;;5.57;;
46931;SDS011;32670;51.464;11.964;2023-02-28T14:07:00;5.37;;;4.87;;
46931;SDS011;32670;51.464;11.964;2023-02-28T14:09:30;5.70;;;5.00;;
46931;SDS011;32670;51.464;11.964;2023-02-28T14:15:04;11.93;;;5.37;;
46931;SDS011;32670;51.464;11.964;2023-02-28T14:17:51;7.10;;;4.93;;
46931;SDS011;32670;51.464;11.964;2023-02-28T14:20:21;6.90;;;5.43;;
46931;SDS011;32670;51.464;11.964;2023-02-28T14:23:03;6.33;;;5.07;;
46931;SDS011;32670;51.464;11.964;2023-02-28T14:28:14;6.30;;;4.70;;
46931;SDS011;32670;51.464;11.964;2023-02-28T14:36:20;5.30;;;4.80;;
46931;SDS011;32670;51.464;11.964;2023-02-28T14:38:54;6.73;;;5.30;;
46931;SDS011;32670;51.464;11.964;2023-02-28T14:41:23;5.33;;;4.60;;
46931;SDS011;32670;51.464;11.964;2023-02-28T14:43:55;6.40;;;5.33;;
46931;SDS011;32670;51.464;11.964;2023-02-28T14:46:22;6.07;;;5.07;;
46931;SDS011;32670;51.464;11.964;2023-02-28T14:48:51;5.93;;;5.10;;
46931;SDS011;32670;51.464;11.964;2023-02-28T14:51:21;5.53;;;4.63;;
46931;SDS011;32670;51.464;11.964;2023-02-28T14:53:52;6.20;;;4.83;;
46931;SDS011;32670;51.464;11.964;2023-02-28T14:56:23;5.63;;;4.70;;
46931;SDS011;32670;51.464;11.964;2023-02-28T14:58:56;5.53;;;4.67;;
46931;SDS011;32670;51.464;11.964;2023-02-28T15:01:22;5.00;;;4.50;;
46931;SDS011;32670;51.464;11.964;2023-02-28T15:03:56;6.43;;;5.23;;
46931;SDS011;32670;51.464;11.964;2023-02-28T15:06:27;5.27;;;4.50;;
46931;SDS011;32670;51.464;11.964;2023-02-28T15:09:06;5.33;;;4.60;;
46931;SDS011;32670;51.464;11.964;2023-02-28T15:11:40;5.43;;;4.60;;
46931;SDS011;32670;51.464;11.964;2023-02-28T15:14:05;4.80;;;4.37;;
46931;SDS011;32670;51.464;11.964;2023-02-28T15:16:32;6.03;;;4.57;;
46931;SDS011;32670;51.464;11.964;2023-02-28T15:19:07;5.23;;;4.73;;
46931;SDS011;32670;51.464;11.964;2023-02-28T15:21:49;6.00;;;4.33;;
46931;SDS011;32670;51.464;11.964;2023-02-28T15:24:27;4.77;;;4.23;;
46931;SDS011;32670;51.464;11.964;2023-02-28T15:27:02;5.53;;;4.70;;
46931;SDS011;32670;51.464;11.964;2023-02-28T15:29:39;5.40;;;4.57;;
46931;SDS011;32670;51.464;11.964;2023-02-28T15:32:20;5.40;;;4.17;;
46931;SDS011;32670;51.464;11.964;2023-02-28T15:34:50;5.40;;;4.50;;
46931;SDS011;32670;51.464;11.964;2023-02-28T15:40:15;5.27;;;4.20;;
46931;SDS011;32670;51.464;11.964;2023-02-28T15:42:58;4.70;;;4.20;;
46931;SDS011;32670;51.464;11.964;2023-02-28T15:45:36;5.10;;;4.37;;
46931;SDS011;32670;51.464;11.964;2023-02-28T15:48:09;5.10;;;4.27;;
46931;SDS011;32670;51.464;11.964;2023-02-28T15:50:40;4.80;;;4.27;;
46931;SDS011;32670;51.464;11.964;2023-02-28T15:53:11;5.70;;;4.40;;
46931;SDS011;32670;51.464;11.964;2023-02-28T15:55:39;4.63;;;4.23;;
46931;SDS011;32670;51.464;11.964;2023-02-28T15:58:08;5.70;;;4.20;;
46931;SDS011;32670;51.464;11.964;2023-02-28T16:00:37;4.67;;;4.23;;
46931;SDS011;32670;51.464;11.964;2023-02-28T16:03:23;4.33;;;3.93;;
46931;SDS011;32670;51.464;11.964;2023-02-28T16:06:07;4.30;;;3.90;;
46931;SDS011;32670;51.464;11.964;2023-02-28T16:08:34;4.63;;;4.13;;
46931;SDS011;32670;51.464;11.964;2023-02-28T16:10:59;4.13;;;3.73;;
46931;SDS011;32670;51.464;11.964;2023-02-28T16:13:25;5.00;;;4.40;;
46931;SDS011;32670;51.464;11.964;2023-02-28T16:15:50;4.63;;;4.17;;
46931;SDS011;32670;51.464;11.964;2023-02-28T16:18:16;4.63;;;3.87;;
46931;SDS011;32670;51.464;11.964;2023-02-28T16:20:41;5.07;;;4.23;;